MSR2768 LEBL-HELX
Flight info
| Callsign | MSR2768 |
|---|---|
| Flight time | N/A |
| Altitude | 30000 |
| Route | DIPES N725 INKIR/N0428F310 DCT TABOT M739 NIVAB UM739 SONAK DCT ASDAX/N0414F290 M978 GZO M980 BONAR/N0420F310 M980 DARIP/N0424F330 M980 LOSUL M855 MMA N705 BOPIX N710 TAKRI P751 LXR |
| Aircraft | A320/M-SDE3FGHIRWY/LB1 |
Departure
| Time | N/A |
|---|---|
| Airport | Josep Tarradellas Barcelona-El Prat Airport (LEBL) |
Arrival
| Time | 2026-05-07 12:17 |
|---|---|
| Airport | Luxor International Airport (HELX) |
| Time | Latitude | Longitude | Altitude | Speed | Heading |
|---|---|---|---|---|---|
| 2026-05-07 11:30 | 27.79189 | 30.42322 | 11595 ft | 313 kts | 144° |
| 2026-05-07 11:30 | 27.77401 | 30.43765 | 11447 ft | 312 kts | 144° |
| 2026-05-07 11:30 | 27.75626 | 30.45197 | 11307 ft | 314 kts | 144° |
| 2026-05-07 11:30 | 27.73886 | 30.46599 | 11164 ft | 310 kts | 144° |
| 2026-05-07 11:31 | 27.72126 | 30.48019 | 11020 ft | 312 kts | 143° |
| 2026-05-07 11:31 | 27.70377 | 30.49428 | 10880 ft | 305 kts | 144° |
| 2026-05-07 11:31 | 27.68674 | 30.50800 | 10736 ft | 299 kts | 143° |
| 2026-05-07 11:31 | 27.66977 | 30.52166 | 10594 ft | 300 kts | 143° |
| 2026-05-07 11:32 | 27.63559 | 30.54917 | 10310 ft | 302 kts | 143° |
| 2026-05-07 11:32 | 27.61868 | 30.56281 | 10169 ft | 296 kts | 143° |
| 2026-05-07 11:32 | 27.60199 | 30.57623 | 10028 ft | 295 kts | 144° |
| 2026-05-07 11:33 | 27.58523 | 30.58970 | 9885 ft | 296 kts | 143° |
| 2026-05-07 11:33 | 27.56851 | 30.60316 | 9732 ft | 294 kts | 144° |
| 2026-05-07 11:33 | 27.55195 | 30.61650 | 9577 ft | 291 kts | 144° |
| 2026-05-07 11:33 | 27.53549 | 30.62973 | 9426 ft | 291 kts | 143° |
| 2026-05-07 11:34 | 27.51896 | 30.64300 | 9273 ft | 292 kts | 143° |
| 2026-05-07 11:34 | 27.50239 | 30.65630 | 9122 ft | 294 kts | 143° |
| 2026-05-07 11:34 | 27.48579 | 30.66964 | 8980 ft | 291 kts | 143° |
| 2026-05-07 11:34 | 27.46940 | 30.68278 | 8902 ft | 290 kts | 142° |
| 2026-05-07 11:35 | 27.45285 | 30.69604 | 8829 ft | 293 kts | 143° |
| 2026-05-07 11:35 | 27.43637 | 30.70925 | 8751 ft | 290 kts | 143° |
| 2026-05-07 11:35 | 27.41985 | 30.72247 | 8676 ft | 292 kts | 142° |
| 2026-05-07 11:35 | 27.40330 | 30.73573 | 8601 ft | 289 kts | 143° |
| 2026-05-07 11:36 | 27.38696 | 30.74880 | 8528 ft | 287 kts | 142° |
| 2026-05-07 11:36 | 27.37056 | 30.76192 | 8451 ft | 291 kts | 143° |
| 2026-05-07 11:36 | 27.35416 | 30.77503 | 8376 ft | 288 kts | 142° |
| 2026-05-07 11:36 | 27.33786 | 30.78808 | 8300 ft | 286 kts | 143° |
| 2026-05-07 11:37 | 27.32173 | 30.80099 | 8227 ft | 284 kts | 143° |
| 2026-05-07 11:37 | 27.30561 | 30.81387 | 8153 ft | 286 kts | 142° |
| 2026-05-07 11:37 | 27.28934 | 30.82686 | 8081 ft | 288 kts | 142° |
| 2026-05-07 11:37 | 27.27305 | 30.83987 | 8005 ft | 286 kts | 143° |
| 2026-05-07 11:38 | 27.25687 | 30.85278 | 7936 ft | 285 kts | 142° |
| 2026-05-07 11:38 | 27.24065 | 30.86571 | 7866 ft | 288 kts | 142° |
| 2026-05-07 11:38 | 27.22433 | 30.87878 | 7789 ft | 288 kts | 142° |
| 2026-05-07 11:38 | 27.20800 | 30.89181 | 7718 ft | 286 kts | 142° |
| 2026-05-07 11:39 | 27.19177 | 30.90475 | 7646 ft | 286 kts | 143° |
| 2026-05-07 11:39 | 27.17564 | 30.91759 | 7573 ft | 283 kts | 142° |
| 2026-05-07 11:39 | 27.16496 | 30.92611 | 7525 ft | 285 kts | 142° |
| 2026-05-07 11:39 | 27.14876 | 30.93900 | 7441 ft | 284 kts | 143° |
| 2026-05-07 11:40 | 27.13269 | 30.95175 | 7376 ft | 282 kts | 143° |
| 2026-05-07 11:40 | 27.11668 | 30.96446 | 7308 ft | 282 kts | 142° |
| 2026-05-07 11:40 | 27.10059 | 30.97723 | 7236 ft | 282 kts | 143° |
| 2026-05-07 11:40 | 27.08455 | 30.98997 | 7165 ft | 285 kts | 142° |
| 2026-05-07 11:41 | 27.06835 | 31.00286 | 7096 ft | 285 kts | 143° |
| 2026-05-07 11:41 | 27.05230 | 31.01558 | 7020 ft | 281 kts | 142° |
| 2026-05-07 11:41 | 27.03626 | 31.02830 | 6949 ft | 282 kts | 142° |
| 2026-05-07 11:41 | 27.02048 | 31.04139 | 6880 ft | 283 kts | 139° |
| 2026-05-07 11:42 | 27.00518 | 31.05529 | 6809 ft | 283 kts | 137° |
| 2026-05-07 11:42 | 26.99016 | 31.06944 | 6739 ft | 281 kts | 137° |
| 2026-05-07 11:42 | 26.97533 | 31.08354 | 6668 ft | 279 kts | 136° |
| 2026-05-07 11:42 | 26.96041 | 31.09767 | 6596 ft | 281 kts | 137° |
| 2026-05-07 11:43 | 26.94550 | 31.11167 | 6528 ft | 278 kts | 138° |
| 2026-05-07 11:43 | 26.93069 | 31.12550 | 6442 ft | 278 kts | 137° |
| 2026-05-07 11:43 | 26.91577 | 31.13935 | 6376 ft | 278 kts | 137° |
| 2026-05-07 11:43 | 26.90075 | 31.15325 | 6298 ft | 280 kts | 139° |
| 2026-05-07 11:44 | 26.88575 | 31.16708 | 6224 ft | 278 kts | 137° |
| 2026-05-07 11:44 | 26.87077 | 31.18090 | 6143 ft | 280 kts | 137° |
| 2026-05-07 11:44 | 26.85578 | 31.19475 | 6051 ft | 278 kts | 137° |
| 2026-05-07 11:44 | 26.84080 | 31.20861 | 5974 ft | 280 kts | 137° |
| 2026-05-07 11:45 | 26.82591 | 31.22239 | 5899 ft | 275 kts | 138° |
| 2026-05-07 11:45 | 26.81131 | 31.23585 | 5820 ft | 277 kts | 138° |
| 2026-05-07 11:45 | 26.79628 | 31.24971 | 5743 ft | 276 kts | 139° |
| 2026-05-07 11:45 | 26.78172 | 31.26312 | 5668 ft | 274 kts | 139° |
| 2026-05-07 11:46 | 26.76707 | 31.27665 | 5595 ft | 273 kts | 138° |
| 2026-05-07 11:46 | 26.75230 | 31.29030 | 5518 ft | 276 kts | 137° |
| 2026-05-07 11:46 | 26.73748 | 31.30400 | 5426 ft | 276 kts | 139° |
| 2026-05-07 11:46 | 26.72275 | 31.31760 | 5339 ft | 274 kts | 138° |
| 2026-05-07 11:47 | 26.70788 | 31.33130 | 5264 ft | 278 kts | 138° |
| 2026-05-07 11:47 | 26.69295 | 31.34503 | 5192 ft | 278 kts | 138° |
| 2026-05-07 11:47 | 26.67808 | 31.35870 | 5119 ft | 276 kts | 139° |
| 2026-05-07 11:47 | 26.66334 | 31.37226 | 5043 ft | 274 kts | 138° |
| 2026-05-07 11:48 | 26.64851 | 31.38591 | 4968 ft | 277 kts | 139° |
| 2026-05-07 11:48 | 26.63379 | 31.39946 | 4897 ft | 274 kts | 138° |
| 2026-05-07 11:48 | 26.61908 | 31.41299 | 4807 ft | 273 kts | 139° |
| 2026-05-07 11:48 | 26.60444 | 31.42642 | 4730 ft | 273 kts | 138° |
| 2026-05-07 11:49 | 26.58963 | 31.44002 | 4658 ft | 277 kts | 139° |
| 2026-05-07 11:49 | 26.57484 | 31.45357 | 4566 ft | 273 kts | 139° |
| 2026-05-07 11:49 | 26.56010 | 31.46709 | 4490 ft | 274 kts | 139° |
| 2026-05-07 11:49 | 26.54533 | 31.48064 | 4404 ft | 276 kts | 139° |
| 2026-05-07 11:50 | 26.53050 | 31.49423 | 4323 ft | 276 kts | 139° |
| 2026-05-07 11:50 | 26.51574 | 31.50781 | 4243 ft | 274 kts | 140° |
| 2026-05-07 11:50 | 26.50102 | 31.52134 | 4162 ft | 275 kts | 139° |
| 2026-05-07 11:50 | 26.48620 | 31.53494 | 4079 ft | 276 kts | 140° |
| 2026-05-07 11:51 | 26.47145 | 31.54843 | 3996 ft | 273 kts | 140° |
| 2026-05-07 11:51 | 26.45683 | 31.56179 | 3919 ft | 272 kts | 139° |
| 2026-05-07 11:51 | 26.44208 | 31.57528 | 3894 ft | 279 kts | 139° |
| 2026-05-07 11:51 | 26.42681 | 31.58928 | 3831 ft | 286 kts | 140° |
| 2026-05-07 11:52 | 26.41148 | 31.60331 | 3773 ft | 285 kts | 139° |
| 2026-05-07 11:52 | 26.39606 | 31.61742 | 3720 ft | 287 kts | 139° |
| 2026-05-07 11:52 | 26.38062 | 31.63153 | 3666 ft | 286 kts | 139° |
| 2026-05-07 11:52 | 26.36513 | 31.64565 | 3618 ft | 288 kts | 140° |
| 2026-05-07 11:53 | 26.34974 | 31.65966 | 3565 ft | 284 kts | 140° |
| 2026-05-07 11:53 | 26.33435 | 31.67367 | 3515 ft | 287 kts | 139° |
| 2026-05-07 11:53 | 26.31896 | 31.68774 | 3461 ft | 286 kts | 139° |
| 2026-05-07 11:53 | 26.30367 | 31.70172 | 3418 ft | 283 kts | 140° |
| 2026-05-07 11:54 | 26.28851 | 31.71557 | 3363 ft | 281 kts | 140° |
| 2026-05-07 11:54 | 26.27329 | 31.72947 | 3315 ft | 284 kts | 141° |
| 2026-05-07 11:54 | 26.25801 | 31.74343 | 3269 ft | 283 kts | 141° |
| 2026-05-07 11:54 | 26.24282 | 31.75723 | 3219 ft | 281 kts | 140° |
| 2026-05-07 11:55 | 26.22760 | 31.77105 | 3164 ft | 284 kts | 140° |
| 2026-05-07 11:55 | 26.21238 | 31.78491 | 3034 ft | 282 kts | 140° |
| 2026-05-07 11:55 | 26.19726 | 31.79871 | 2973 ft | 281 kts | 140° |
| 2026-05-07 11:55 | 26.18208 | 31.81254 | 2980 ft | 284 kts | 139° |
| 2026-05-07 11:56 | 26.16669 | 31.82652 | 2989 ft | 286 kts | 140° |
| 2026-05-07 11:56 | 26.15159 | 31.84021 | 2983 ft | 282 kts | 140° |
| 2026-05-07 11:56 | 26.13636 | 31.85404 | 2983 ft | 282 kts | 140° |
| 2026-05-07 11:56 | 26.12120 | 31.86780 | 2986 ft | 281 kts | 140° |
| 2026-05-07 11:57 | 26.10597 | 31.88161 | 2981 ft | 283 kts | 140° |
| 2026-05-07 11:57 | 26.09073 | 31.89542 | 2973 ft | 282 kts | 140° |
| 2026-05-07 11:57 | 26.07545 | 31.90928 | 2982 ft | 284 kts | 140° |
| 2026-05-07 11:57 | 26.06008 | 31.92327 | 2978 ft | 287 kts | 140° |
| 2026-05-07 11:58 | 26.04463 | 31.93737 | 2915 ft | 287 kts | 140° |
| 2026-05-07 11:58 | 26.02925 | 31.95139 | 2864 ft | 285 kts | 141° |
| 2026-05-07 11:58 | 26.01395 | 31.96529 | 2812 ft | 284 kts | 141° |
| 2026-05-07 11:58 | 25.99859 | 31.97923 | 2761 ft | 285 kts | 141° |
| 2026-05-07 11:59 | 25.98329 | 31.99308 | 2712 ft | 282 kts | 141° |
| 2026-05-07 11:59 | 25.96803 | 32.00690 | 2662 ft | 284 kts | 140° |
| 2026-05-07 11:59 | 25.95265 | 32.02082 | 2614 ft | 286 kts | 140° |
| 2026-05-07 11:59 | 25.93712 | 32.03484 | 2564 ft | 289 kts | 141° |
| 2026-05-07 12:00 | 25.92172 | 32.04876 | 2483 ft | 286 kts | 140° |
| 2026-05-07 12:00 | 25.90633 | 32.06266 | 2493 ft | 284 kts | 141° |
| 2026-05-07 12:00 | 25.89102 | 32.07646 | 2498 ft | 284 kts | 142° |
| 2026-05-07 12:00 | 25.87560 | 32.09036 | 2497 ft | 286 kts | 141° |
| 2026-05-07 12:01 | 25.86025 | 32.10422 | 2494 ft | 283 kts | 141° |
| 2026-05-07 12:01 | 25.84501 | 32.11800 | 2492 ft | 283 kts | 140° |
| 2026-05-07 12:01 | 25.82970 | 32.13182 | 2492 ft | 284 kts | 140° |
| 2026-05-07 12:01 | 25.81437 | 32.14564 | 2564 ft | 283 kts | 140° |
| 2026-05-07 12:02 | 25.79902 | 32.15944 | 2811 ft | 284 kts | 140° |
| 2026-05-07 12:02 | 25.78380 | 32.17316 | 3052 ft | 287 kts | 140° |
| 2026-05-07 12:02 | 25.76825 | 32.18721 | 3300 ft | 289 kts | 140° |
| 2026-05-07 12:02 | 25.75266 | 32.20130 | 3438 ft | 290 kts | 140° |
| 2026-05-07 12:03 | 25.73704 | 32.21542 | 3374 ft | 291 kts | 141° |
| 2026-05-07 12:03 | 25.72137 | 32.22956 | 3250 ft | 289 kts | 141° |
| 2026-05-07 12:03 | 25.70593 | 32.24345 | 3201 ft | 284 kts | 140° |
| 2026-05-07 12:03 | 25.69060 | 32.25723 | 3189 ft | 283 kts | 140° |
| 2026-05-07 12:04 | 25.67533 | 32.27097 | 3189 ft | 279 kts | 140° |
| 2026-05-07 12:04 | 25.66072 | 32.28411 | 3188 ft | 263 kts | 140° |
| 2026-05-07 12:04 | 25.64692 | 32.29651 | 3192 ft | 247 kts | 140° |
| 2026-05-07 12:04 | 25.63404 | 32.30805 | 3188 ft | 229 kts | 141° |
| 2026-05-07 12:05 | 25.62193 | 32.31892 | 3159 ft | 221 kts | 141° |
| 2026-05-07 12:05 | 25.61004 | 32.32962 | 3198 ft | 219 kts | 141° |
| 2026-05-07 12:05 | 25.59827 | 32.34017 | 3198 ft | 218 kts | 141° |
| 2026-05-07 12:05 | 25.58654 | 32.35067 | 3196 ft | 216 kts | 141° |
| 2026-05-07 12:06 | 25.57486 | 32.36111 | 3191 ft | 217 kts | 140° |
| 2026-05-07 12:06 | 25.56318 | 32.37157 | 3204 ft | 214 kts | 140° |
| 2026-05-07 12:06 | 25.55169 | 32.38189 | 3192 ft | 211 kts | 140° |
| 2026-05-07 12:06 | 25.54023 | 32.39221 | 3202 ft | 213 kts | 140° |
| 2026-05-07 12:07 | 25.52875 | 32.40252 | 3234 ft | 212 kts | 140° |
| 2026-05-07 12:07 | 25.51738 | 32.41273 | 3197 ft | 210 kts | 140° |
| 2026-05-07 12:07 | 25.50599 | 32.42293 | 3183 ft | 211 kts | 140° |
| 2026-05-07 12:07 | 25.49457 | 32.43317 | 3187 ft | 212 kts | 140° |
| 2026-05-07 12:08 | 25.48300 | 32.44353 | 3194 ft | 214 kts | 141° |
| 2026-05-07 12:08 | 25.47152 | 32.45379 | 3190 ft | 214 kts | 140° |
| 2026-05-07 12:08 | 25.45985 | 32.46421 | 3199 ft | 216 kts | 140° |
| 2026-05-07 12:08 | 25.44822 | 32.47461 | 3194 ft | 216 kts | 140° |
| 2026-05-07 12:09 | 25.43655 | 32.48505 | 3199 ft | 216 kts | 140° |
| 2026-05-07 12:09 | 25.42495 | 32.49542 | 3198 ft | 214 kts | 140° |
| 2026-05-07 12:09 | 25.41344 | 32.50581 | 3189 ft | 214 kts | 137° |
| 2026-05-07 12:09 | 25.40411 | 32.51845 | 3191 ft | 211 kts | 118° |
| 2026-05-07 12:10 | 25.39883 | 32.53339 | 3180 ft | 208 kts | 98° |
| 2026-05-07 12:10 | 25.39781 | 32.54910 | 3191 ft | 206 kts | 81° |
| 2026-05-07 12:10 | 25.40100 | 32.56433 | 3190 ft | 199 kts | 64° |
| 2026-05-07 12:10 | 25.40776 | 32.57746 | 3189 ft | 194 kts | 46° |
| 2026-05-07 12:11 | 25.41741 | 32.58742 | 3191 ft | 190 kts | 29° |
| 2026-05-07 12:11 | 25.42893 | 32.59422 | 3188 ft | 187 kts | 22° |
| 2026-05-07 12:11 | 25.44070 | 32.60001 | 3205 ft | 183 kts | 18° |
| 2026-05-07 12:11 | 25.45242 | 32.60550 | 3194 ft | 185 kts | 20° |
| 2026-05-07 12:12 | 25.46435 | 32.61102 | 3194 ft | 187 kts | 20° |
| 2026-05-07 12:12 | 25.47637 | 32.61656 | 3202 ft | 189 kts | 20° |
| 2026-05-07 12:12 | 25.48840 | 32.62211 | 3206 ft | 191 kts | 19° |
| 2026-05-07 12:12 | 25.50060 | 32.62774 | 3192 ft | 187 kts | 18° |
| 2026-05-07 12:13 | 25.51243 | 32.63320 | 3015 ft | 183 kts | 18° |
| 2026-05-07 12:13 | 25.52391 | 32.63851 | 2930 ft | 172 kts | 17° |
| 2026-05-07 12:13 | 25.53470 | 32.64349 | 2812 ft | 165 kts | 18° |
| 2026-05-07 12:13 | 25.54497 | 32.64823 | 2651 ft | 156 kts | 18° |
| 2026-05-07 12:14 | 25.55490 | 32.65281 | 2461 ft | 153 kts | 18° |
| 2026-05-07 12:14 | 25.56450 | 32.65724 | 2277 ft | 147 kts | 19° |
| 2026-05-07 12:14 | 25.57381 | 32.66153 | 2092 ft | 144 kts | 19° |
| 2026-05-07 12:14 | 25.58283 | 32.66571 | 1929 ft | 138 kts | 19° |
| 2026-05-07 12:15 | 25.59165 | 32.66977 | 1735 ft | 135 kts | 19° |
| 2026-05-07 12:15 | 25.60033 | 32.67378 | 1551 ft | 135 kts | 21° |
| 2026-05-07 12:15 | 25.60909 | 32.67781 | 1390 ft | 140 kts | 18° |
| 2026-05-07 12:15 | 25.61813 | 32.68199 | 1212 ft | 141 kts | 18° |
| 2026-05-07 12:16 | 25.62717 | 32.68617 | 1020 ft | 142 kts | 19° |
| 2026-05-07 12:16 | 25.63622 | 32.69036 | 828 ft | 142 kts | 20° |
| 2026-05-07 12:16 | 25.64527 | 32.69454 | 633 ft | 140 kts | 22° |
| 2026-05-07 12:16 | 25.65431 | 32.69872 | 449 ft | 140 kts | 21° |
| 2026-05-07 12:17 | 25.66328 | 32.70287 | 304 ft | 139 kts | 20° |
| 2026-05-07 12:17 | 25.67067 | 32.70628 | 288 ft | 79 kts | 22° |
| 2026-05-07 12:17 | 25.67326 | 32.70747 | 287 ft | 21 kts | 22° |
| 2026-05-07 12:17 | 25.67404 | 32.70716 | 288 ft | 0 kts | 297° |
| 2026-05-07 12:18 | 25.67410 | 32.70703 | 288 ft | 3 kts | 297° |
| 2026-05-07 12:18 | 25.67428 | 32.70664 | 292 ft | 7 kts | 286° |
| 2026-05-07 12:18 | 25.67446 | 32.70603 | 290 ft | 10 kts | 316° |
| 2026-05-07 12:19 | 25.67488 | 32.70531 | 290 ft | 13 kts | 294° |
| 2026-05-07 12:19 | 25.67527 | 32.70443 | 287 ft | 12 kts | 294° |
| 2026-05-07 12:19 | 25.67497 | 32.70373 | 288 ft | 10 kts | 210° |
| 2026-05-07 12:19 | 25.67435 | 32.70338 | 288 ft | 1 kts | 206° |
| 2026-05-07 12:20 | 25.67432 | 32.70331 | 292 ft | 2 kts | 240° |
| 2026-05-07 12:20 | 25.67430 | 32.70311 | 288 ft | 3 kts | 278° |
| 2026-05-07 12:21 | 25.67441 | 32.70286 | 292 ft | 2 kts | 294° |
| 2026-05-07 12:21 | 25.67452 | 32.70259 | 288 ft | 5 kts | 295° |
| 2026-05-07 12:21 | 25.67461 | 32.70239 | 291 ft | 2 kts | 295° |
| 2026-05-07 12:21 | 25.67466 | 32.70225 | 288 ft | 0 kts | 295° |